Colonsay, Canada
Current Conditions -  °F | °C
As of 6:00 PM on Thursday 27 Nov 2014 (Local Time) from CYXE Reporting Station
Light Snow Light Snow  
Wind Chill: -11°   Ceiling: 1100
Heat Index:   Visibility: 10mi
Dew Point:   Wind: 20mph
Humidity: 85%   Direction: 60°ENE
Pressure: 30.02"   Gusts: 28mph
Location:  51.97°N, 105.87°W
Report Text: CYXE 280000Z 06017G24KT 10SM -SN DRSN OVC011 M13/M15 A3002 RMK SC8 /03/ SLP212
Loading
Personal Weather Stations






























Interactive Weather Map New forecast layout! Learn more

10-Day Weather Forecast

Advertisements
Track Severe Weather on mobile